Other Surface Observations
Issued by NWS Los Angeles, CA

Home | Current Version | Previous Version | Text Only | Print | Product List | Glossary On
Versions: 1 2 3 4 5 6 7 8 9 10
000
SXUS56 KLOX 282233
OSOLOX

OFFSHORE OIL PLATFORM HARVEST WEATHER
NATIONAL WEATHER SERVICE OXNARD CA
230 PM PST FRI NOV 28 2014

OBSERVATION FROM DRILLING RIG "HARVEST"
LOCATION 34 DEG 28 MIN N...120 DEG 41 MIN W...12 MILES W
PT CONCEPTION ANEMOMETER LOCATED 163 FEET ABOVE SEA LEVEL.
WIND SENSOR IS PARTIALLY BLOCKED BY OIL RIG STRUCTURE.

SPECI 282210Z 35016KT 20SM SKC 17/14 A2992 RMKS SEAS 4 TO
6 FEET

$$



















































































































































































































































































































































USA.gov is the U.S. government's official web portal to all federal, state and local government web resources and services.